createdAt,value
2023-05-05T00:00:14.816Z,923.38
2023-05-05T00:01:14.755Z,920.75
2023-05-05T00:02:14.788Z,897.55
2023-05-05T00:03:14.905Z,907.10
2023-05-05T00:04:14.978Z,885.67
2023-05-05T00:05:14.848Z,883.19
2023-05-05T00:06:14.842Z,882.37
2023-05-05T00:07:14.860Z,903.91
2023-05-05T00:08:14.867Z,912.90
2023-05-05T00:09:14.846Z,893.13
2023-05-05T00:10:14.876Z,871.11
2023-05-05T00:11:14.883Z,872.27
2023-05-05T00:12:14.900Z,852.27
2023-05-05T00:13:14.902Z,851.19
2023-05-05T00:14:14.901Z,854.25
2023-05-05T00:15:14.924Z,861.74
2023-05-05T00:16:15.015Z,861.07
2023-05-05T00:17:14.912Z,835.26
2023-05-05T00:18:14.944Z,847.57
2023-05-05T00:19:14.939Z,826.67
2023-05-05T00:20:14.896Z,816.16
2023-05-05T00:21:14.885Z,790.39
2023-05-05T00:22:14.889Z,820.68
2023-05-05T00:23:14.897Z,817.11
2023-05-05T00:24:14.894Z,802.44
2023-05-05T00:25:14.910Z,789.76
2023-05-05T00:26:14.925Z,789.22
2023-05-05T00:27:14.894Z,799.29
2023-05-05T00:28:14.899Z,793.87
2023-05-05T00:29:14.954Z,776.72
2023-05-05T00:30:14.901Z,793.33
2023-05-05T00:31:14.947Z,785.12
2023-05-05T00:32:14.938Z,785.62
2023-05-05T00:33:14.914Z,778.10
2023-05-05T00:34:14.935Z,772.37
2023-05-05T00:35:14.957Z,779.43
2023-05-05T00:36:14.884Z,774.89
2023-05-05T00:37:14.978Z,756.82
2023-05-05T00:38:14.889Z,771.01
2023-05-05T00:39:14.982Z,775.86
2023-05-05T00:40:14.920Z,766.84
2023-05-05T00:41:14.907Z,742.61
2023-05-05T00:42:14.948Z,750.90
2023-05-05T00:43:14.935Z,746.51
2023-05-05T00:44:14.947Z,740.31
2023-05-05T00:45:14.949Z,733.47
2023-05-05T00:46:14.992Z,731.58
2023-05-05T00:47:14.965Z,723.77
2023-05-05T00:48:14.935Z,721.57
2023-05-05T00:49:14.984Z,727.57
2023-05-05T00:50:14.985Z,705.32
2023-05-05T00:51:14.955Z,725.03
2023-05-05T00:52:14.973Z,711.81
2023-05-05T00:53:15.037Z,693.25
2023-05-05T00:54:14.977Z,708.01
2023-05-05T00:55:14.985Z,704.41
2023-05-05T00:56:14.991Z,699.72
2023-05-05T00:57:15.029Z,686.62
2023-05-05T00:58:15.222Z,695.66
2023-05-05T00:59:15.056Z,681.11
2023-05-05T01:00:15.058Z,687.80
2023-05-05T01:01:15.082Z,681.98
2023-05-05T01:02:15.131Z,669.62
2023-05-05T01:03:15.241Z,668.43
2023-05-05T01:04:15.062Z,686.56
2023-05-05T01:05:15.104Z,665.88
2023-05-05T01:06:15.082Z,667.20
2023-05-05T01:07:15.231Z,660.68
2023-05-05T01:08:15.205Z,672.29
2023-05-05T01:09:15.120Z,666.80
2023-05-05T01:10:20.372Z,663.33
2023-05-05T01:11:16.125Z,663.93
2023-05-05T01:12:15.091Z,663.97
2023-05-05T01:13:15.202Z,667.20
2023-05-05T01:14:15.089Z,661.13
2023-05-05T01:15:15.045Z,665.95
2023-05-05T01:16:15.173Z,661.67
2023-05-05T01:17:15.065Z,642.13
2023-05-05T01:18:15.145Z,642.56
2023-05-05T01:19:15.088Z,643.05
2023-05-05T01:20:15.066Z,646.95
2023-05-05T01:21:15.058Z,638.29
2023-05-05T01:22:15.065Z,640.89
2023-05-05T01:23:15.020Z,622.27
2023-05-05T01:24:15.019Z,625.43
2023-05-05T01:25:15.036Z,631.98
2023-05-05T01:26:15.097Z,624.49
2023-05-05T01:27:14.976Z,611.29
2023-05-05T01:28:14.974Z,618.65
2023-05-05T01:29:15.045Z,612.61
2023-05-05T01:30:14.986Z,615.86
2023-05-05T01:31:15.038Z,621.44
2023-05-05T01:32:14.987Z,617.36
2023-05-05T01:33:14.980Z,611.63
2023-05-05T01:34:14.988Z,606.55
2023-05-05T01:35:14.961Z,595.01
2023-05-05T01:36:14.912Z,586.66
2023-05-05T01:37:14.902Z,579.12
2023-05-05T01:38:14.941Z,578.98
2023-05-05T01:39:14.894Z,575.89
2023-05-05T01:40:14.919Z,580.90
2023-05-05T01:41:15.005Z,580.66
2023-05-05T01:42:14.871Z,568.16
2023-05-05T01:43:14.912Z,562.91
2023-05-05T01:44:14.893Z,560.74
2023-05-05T01:45:14.908Z,556.66
2023-05-05T01:46:15.056Z,552.07
2023-05-05T01:47:14.930Z,562.28
2023-05-05T01:48:14.981Z,554.89
2023-05-05T01:49:14.951Z,549.85
2023-05-05T01:50:14.975Z,545.06
2023-05-05T01:51:14.991Z,543.69
2023-05-05T01:52:14.991Z,550.23
2023-05-05T01:53:14.998Z,542.12
2023-05-05T01:54:15.026Z,537.48
2023-05-05T01:55:15.086Z,548.64
2023-05-05T01:56:15.107Z,548.78
2023-05-05T01:57:15.049Z,539.83
2023-05-05T01:58:15.089Z,540.70
2023-05-05T01:59:15.074Z,535.53
2023-05-05T02:00:15.132Z,528.89
2023-05-05T02:01:15.150Z,537.60
2023-05-05T02:02:15.215Z,524.30
2023-05-05T02:03:15.186Z,522.75
2023-05-05T02:04:15.144Z,524.89
2023-05-05T02:05:15.157Z,513.30
2023-05-05T02:06:15.164Z,513.92
2023-05-05T02:07:15.164Z,506.49
2023-05-05T02:08:15.191Z,506.19
2023-05-05T02:09:15.147Z,497.34
2023-05-05T02:10:15.213Z,481.45
2023-05-05T02:11:15.188Z,496.69
2023-05-05T02:12:15.187Z,487.28
2023-05-05T02:13:15.355Z,483.64
2023-05-05T02:14:15.247Z,487.58
2023-05-05T02:15:15.262Z,478.54
2023-05-05T02:16:15.408Z,485.69
2023-05-05T02:17:15.312Z,475.93
2023-05-05T02:18:15.332Z,472.82
2023-05-05T02:19:15.311Z,465.59
2023-05-05T02:20:15.357Z,479.29
2023-05-05T02:21:15.344Z,469.96
2023-05-05T02:22:15.365Z,468.98
2023-05-05T02:23:15.373Z,470.98
2023-05-05T02:24:15.385Z,462.97
2023-05-05T02:25:15.389Z,469.54
2023-05-05T02:26:15.397Z,474.42
2023-05-05T02:27:15.405Z,460.99
2023-05-05T02:28:15.459Z,468.29
2023-05-05T02:29:15.462Z,468.19
2023-05-05T02:30:15.470Z,463.25
2023-05-05T02:31:15.494Z,460.49
2023-05-05T02:32:15.440Z,462.18
2023-05-05T02:33:15.472Z,463.14
2023-05-05T02:34:15.577Z,456.81
2023-05-05T02:35:15.564Z,449.09
2023-05-05T02:36:15.548Z,443.36
2023-05-05T02:37:15.526Z,448.39
2023-05-05T02:38:15.579Z,436.11
2023-05-05T02:39:15.565Z,447.31
2023-05-05T02:40:15.645Z,433.38
2023-05-05T02:41:15.628Z,438.36
2023-05-05T02:42:15.694Z,432.57
2023-05-05T02:43:15.700Z,427.13
2023-05-05T02:44:15.672Z,435.66
2023-05-05T02:45:15.680Z,430.73
2023-05-05T02:46:15.750Z,441.89
2023-05-05T02:47:15.740Z,429.28
2023-05-05T02:48:15.744Z,430.85
2023-05-05T02:49:15.769Z,428.86
2023-05-05T02:50:15.770Z,429.29
2023-05-05T02:51:15.805Z,434.92
2023-05-05T02:52:15.815Z,419.11
2023-05-05T02:53:15.840Z,416.46
2023-05-05T02:54:15.864Z,414.60
2023-05-05T02:55:15.851Z,407.93
2023-05-05T02:56:15.934Z,410.23
2023-05-05T02:57:16.000Z,405.00
2023-05-05T02:58:15.972Z,397.67
2023-05-05T02:59:16.321Z,401.45
2023-05-05T03:00:15.971Z,391.66
2023-05-05T03:01:16.026Z,393.01
2023-05-05T03:02:16.052Z,391.55
2023-05-05T03:03:16.110Z,390.31
2023-05-05T03:04:16.071Z,386.00
2023-05-05T03:05:16.032Z,393.75
2023-05-05T03:06:16.029Z,382.99
2023-05-05T03:07:16.097Z,381.79
2023-05-05T03:08:16.106Z,385.32
2023-05-05T03:09:16.131Z,382.05
2023-05-05T03:10:16.162Z,381.65
2023-05-05T03:11:16.139Z,387.91
2023-05-05T03:12:16.229Z,384.70
2023-05-05T03:13:16.216Z,374.11
2023-05-05T03:14:16.224Z,368.95
2023-05-05T03:15:16.249Z,372.42
2023-05-05T03:16:16.271Z,373.91
2023-05-05T03:17:16.262Z,374.61
2023-05-05T03:18:16.410Z,368.82
2023-05-05T03:19:16.408Z,361.16
2023-05-05T03:20:16.327Z,351.53
2023-05-05T03:21:16.339Z,359.10
2023-05-05T03:22:16.370Z,353.24
2023-05-05T03:23:16.403Z,356.09
2023-05-05T03:24:16.409Z,354.21
2023-05-05T03:25:16.402Z,344.83
2023-05-05T03:26:16.367Z,348.09
2023-05-05T03:27:16.451Z,345.04
2023-05-05T03:28:16.435Z,355.42
2023-05-05T03:29:16.440Z,346.55
2023-05-05T03:30:16.463Z,349.53
2023-05-05T03:31:16.537Z,350.84
2023-05-05T03:32:16.526Z,344.79
2023-05-05T03:33:16.512Z,342.76
2023-05-05T03:34:16.570Z,348.59
2023-05-05T03:35:16.595Z,350.19
2023-05-05T03:36:16.599Z,344.91
2023-05-05T03:37:16.614Z,340.80
2023-05-05T03:38:16.636Z,336.65
2023-05-05T03:39:16.716Z,339.64
2023-05-05T03:40:16.717Z,335.59
2023-05-05T03:41:16.715Z,333.36
2023-05-05T03:42:16.730Z,331.21
2023-05-05T03:43:16.751Z,329.87
2023-05-05T03:44:16.773Z,320.81
2023-05-05T03:45:16.846Z,320.97
2023-05-05T03:46:17.208Z,321.84
2023-05-05T03:47:16.822Z,318.60
2023-05-05T03:48:16.883Z,317.38
2023-05-05T03:49:16.931Z,322.04
2023-05-05T03:50:16.921Z,325.71
2023-05-05T03:51:16.958Z,315.66
2023-05-05T03:52:16.999Z,312.99
2023-05-05T03:53:17.024Z,321.67
2023-05-05T03:54:17.021Z,314.19
2023-05-05T03:55:17.060Z,319.38
2023-05-05T03:56:17.121Z,307.54
2023-05-05T03:57:17.151Z,309.04
2023-05-05T03:58:17.150Z,309.77
2023-05-05T03:59:17.160Z,304.17
2023-05-05T04:00:17.171Z,304.94
2023-05-05T04:01:17.274Z,295.88
2023-05-05T04:02:18.837Z,296.92
2023-05-05T04:03:17.381Z,289.89
2023-05-05T04:04:17.285Z,290.43
2023-05-05T04:05:17.301Z,285.95
2023-05-05T04:06:17.305Z,272.01
2023-05-05T04:07:17.314Z,266.23
2023-05-05T04:08:17.353Z,259.86
2023-05-05T04:09:17.357Z,249.69
2023-05-05T04:10:17.426Z,243.93
2023-05-05T04:11:17.443Z,233.60
2023-05-05T04:12:17.454Z,221.48
2023-05-05T04:13:17.535Z,217.10
2023-05-05T04:14:17.544Z,212.08
2023-05-05T04:15:17.561Z,201.02
2023-05-05T04:16:17.630Z,192.10
2023-05-05T04:17:17.565Z,186.71
2023-05-05T04:18:17.611Z,182.80
2023-05-05T04:19:17.705Z,173.05
2023-05-05T04:20:17.697Z,170.41
2023-05-05T04:21:17.763Z,163.59
2023-05-05T04:22:17.777Z,157.43
2023-05-05T04:23:17.798Z,150.92
2023-05-05T04:24:17.839Z,145.24
2023-05-05T04:25:17.848Z,136.52
2023-05-05T04:26:17.859Z,134.60
2023-05-05T04:27:17.857Z,131.89
2023-05-05T04:28:19.600Z,133.15
2023-05-05T04:29:17.908Z,126.74
2023-05-05T04:30:17.900Z,128.14
2023-05-05T04:31:17.989Z,127.19
2023-05-05T04:32:17.900Z,125.61
2023-05-05T04:33:17.900Z,132.76
2023-05-05T04:34:17.843Z,132.72
2023-05-05T04:35:17.845Z,132.02
2023-05-05T04:36:17.872Z,129.24
2023-05-05T04:37:17.832Z,131.24
2023-05-05T04:38:17.860Z,133.27
2023-05-05T04:39:17.839Z,134.99
2023-05-05T04:40:17.845Z,131.11
2023-05-05T04:41:17.856Z,131.53
2023-05-05T04:42:17.795Z,129.54
2023-05-05T04:43:17.793Z,128.85
2023-05-05T04:44:17.763Z,125.25
2023-05-05T04:45:17.782Z,121.68
2023-05-05T04:46:17.812Z,115.96
2023-05-05T04:47:17.799Z,114.90
2023-05-05T04:48:17.744Z,118.52
2023-05-05T04:49:17.757Z,120.75
2023-05-05T04:50:17.753Z,122.81
2023-05-05T04:51:17.745Z,123.10
2023-05-05T04:52:17.729Z,129.56
2023-05-05T04:53:17.727Z,132.20
2023-05-05T04:54:17.737Z,131.27
2023-05-05T04:55:17.753Z,131.30
2023-05-05T04:56:17.751Z,131.68
2023-05-05T04:57:17.758Z,136.37
2023-05-05T04:58:17.717Z,140.66
2023-05-05T04:59:17.732Z,140.21
2023-05-05T05:00:17.690Z,136.68
2023-05-05T05:01:17.683Z,138.37
2023-05-05T05:02:17.841Z,133.40
2023-05-05T05:03:18.386Z,135.33
2023-05-05T05:04:17.703Z,132.60
2023-05-05T05:05:17.621Z,132.66
2023-05-05T05:06:17.634Z,129.22
2023-05-05T05:07:17.674Z,127.14
2023-05-05T05:08:17.662Z,129.25
2023-05-05T05:09:17.620Z,126.27
2023-05-05T05:10:17.596Z,126.85
2023-05-05T05:11:17.599Z,123.43
2023-05-05T05:12:17.602Z,123.89
2023-05-05T05:13:17.737Z,121.95
2023-05-05T05:14:17.600Z,120.71
2023-05-05T05:15:17.539Z,119.05
2023-05-05T05:16:17.645Z,117.69
2023-05-05T05:17:17.543Z,114.69
2023-05-05T05:18:17.708Z,114.56
2023-05-05T05:19:17.538Z,113.58
2023-05-05T05:20:17.565Z,112.05
2023-05-05T05:21:17.565Z,108.78
2023-05-05T05:22:17.570Z,108.21
2023-05-05T05:23:17.530Z,109.64
2023-05-05T05:24:17.542Z,105.46
2023-05-05T05:25:17.547Z,103.85
2023-05-05T05:26:17.528Z,102.99
2023-05-05T05:27:17.472Z,103.99
2023-05-05T05:28:17.475Z,104.32
2023-05-05T05:29:17.522Z,101.84
2023-05-05T05:30:17.460Z,101.48
2023-05-05T05:31:17.452Z,100.26
2023-05-05T05:32:17.531Z,103.09
2023-05-05T05:33:17.498Z,98.90
2023-05-05T05:34:17.676Z,100.51
2023-05-05T05:35:17.450Z,98.90
2023-05-05T05:36:17.467Z,97.36
2023-05-05T05:37:17.540Z,94.74
2023-05-05T05:38:17.418Z,97.40
2023-05-05T05:39:17.468Z,96.33
2023-05-05T05:40:17.474Z,95.40
2023-05-05T05:41:17.448Z,95.01
2023-05-05T05:42:17.504Z,95.54
2023-05-05T05:43:17.407Z,95.20
2023-05-05T05:44:17.600Z,97.24
2023-05-05T05:45:17.524Z,99.01
2023-05-05T05:46:17.619Z,97.09
2023-05-05T05:47:17.633Z,94.98
2023-05-05T05:48:17.696Z,90.04
2023-05-05T05:49:17.737Z,93.12
2023-05-05T05:50:17.712Z,93.68
2023-05-05T05:51:17.669Z,95.86
2023-05-05T05:52:17.842Z,100.08
2023-05-05T05:53:17.861Z,98.74
2023-05-05T05:54:18.172Z,101.90
2023-05-05T05:55:17.950Z,102.98
2023-05-05T05:56:18.005Z,103.52
2023-05-05T05:57:18.301Z,104.45
2023-05-05T05:58:18.084Z,105.50
2023-05-05T05:59:18.118Z,105.64
2023-05-05T06:00:18.222Z,107.52
2023-05-05T06:01:18.242Z,107.07
2023-05-05T06:02:18.304Z,111.02
2023-05-05T06:03:18.494Z,112.49
2023-05-05T06:04:18.373Z,115.44
2023-05-05T06:05:18.442Z,116.39
2023-05-05T06:06:18.446Z,117.85
2023-05-05T06:07:18.439Z,119.06
2023-05-05T06:08:18.442Z,120.24
2023-05-05T06:09:18.513Z,119.25
2023-05-05T06:10:26.543Z,123.27
2023-05-05T06:11:19.439Z,123.51
2023-05-05T06:12:18.464Z,123.94
2023-05-05T06:13:18.461Z,125.54
2023-05-05T06:14:20.208Z,128.93
2023-05-05T06:15:18.423Z,131.87
2023-05-05T06:16:18.408Z,136.73
2023-05-05T06:17:18.448Z,137.77
2023-05-05T06:18:18.477Z,140.20
2023-05-05T06:19:18.474Z,137.72
2023-05-05T06:20:18.380Z,137.41
2023-05-05T06:21:18.362Z,135.98
2023-05-05T06:22:18.375Z,138.02
2023-05-05T06:23:18.753Z,139.76
2023-05-05T06:24:18.326Z,135.02
2023-05-05T06:25:18.370Z,136.30
2023-05-05T06:26:18.395Z,136.64
2023-05-05T06:27:18.374Z,134.95
2023-05-05T06:28:18.712Z,140.43
2023-05-05T06:29:19.439Z,142.19
2023-05-05T06:30:18.381Z,139.66
2023-05-05T06:31:18.334Z,142.66
2023-05-05T06:32:18.403Z,142.00
2023-05-05T06:33:18.332Z,145.92
2023-05-05T06:34:18.297Z,146.86
2023-05-05T06:35:18.335Z,145.69
2023-05-05T06:36:18.689Z,144.64
2023-05-05T06:37:19.210Z,146.87
2023-05-05T06:38:18.540Z,147.86
2023-05-05T06:39:18.390Z,144.94
2023-05-05T06:40:18.446Z,141.05
2023-05-05T06:41:18.672Z,142.55
2023-05-05T06:42:18.562Z,143.69
2023-05-05T06:43:18.590Z,142.29
2023-05-05T06:44:18.627Z,142.31
2023-05-05T06:45:18.711Z,137.57
2023-05-05T06:46:18.905Z,124.10
2023-05-05T06:47:18.825Z,127.79
2023-05-05T06:48:19.051Z,122.77
2023-05-05T06:49:18.914Z,118.91
2023-05-05T06:50:19.030Z,104.68
2023-05-05T06:51:19.057Z,103.36
2023-05-05T06:52:19.182Z,103.43
2023-05-05T06:53:19.148Z,102.87
2023-05-05T06:54:19.223Z,103.37
2023-05-05T06:55:19.357Z,107.24
2023-05-05T06:56:19.685Z,108.52
2023-05-05T06:57:19.377Z,110.19
2023-05-05T06:58:19.457Z,110.45
2023-05-05T06:59:19.499Z,114.48
2023-05-05T07:00:19.536Z,116.48
2023-05-05T07:01:19.703Z,120.30
2023-05-05T07:02:19.766Z,122.22
2023-05-05T07:03:19.755Z,116.69
2023-05-05T07:04:20.248Z,116.07
2023-05-05T07:05:19.790Z,116.84
2023-05-05T07:06:19.865Z,120.37
2023-05-05T07:07:19.897Z,123.74
2023-05-05T07:08:19.898Z,118.35
2023-05-05T07:09:20.026Z,121.85
2023-05-05T07:10:19.979Z,124.76
2023-05-05T07:11:20.096Z,125.17
2023-05-05T07:12:20.073Z,125.13
2023-05-05T07:13:20.248Z,117.64
2023-05-05T07:14:21.534Z,112.78
2023-05-05T07:15:28.687Z,113.05
2023-05-05T07:16:21.198Z,113.21
2023-05-05T07:17:20.160Z,113.50
2023-05-05T07:18:20.267Z,116.38
2023-05-05T07:19:20.079Z,122.21
2023-05-05T07:20:20.116Z,129.23
2023-05-05T07:21:20.162Z,127.72
2023-05-05T07:22:20.068Z,125.13
2023-05-05T07:23:20.068Z,127.35
2023-05-05T07:24:20.077Z,119.31
2023-05-05T07:25:20.107Z,122.19
2023-05-05T07:26:20.090Z,119.84
2023-05-05T07:27:20.194Z,113.18
2023-05-05T07:28:20.245Z,116.40
2023-05-05T07:29:20.118Z,114.51
2023-05-05T07:30:20.248Z,118.65
2023-05-05T07:31:20.080Z,107.73
2023-05-05T07:32:20.110Z,103.96
2023-05-05T07:33:20.099Z,104.07
2023-05-05T07:34:20.048Z,95.28
2023-05-05T07:35:20.396Z,84.43
2023-05-05T07:36:20.096Z,76.46
2023-05-05T07:37:20.202Z,79.56
2023-05-05T07:38:20.518Z,78.67
2023-05-05T07:39:22.690Z,74.20
2023-05-05T07:40:20.227Z,57.11
2023-05-05T07:41:20.159Z,58.11
2023-05-05T07:42:20.252Z,48.12
2023-05-05T07:43:20.324Z,35.62
2023-05-05T07:44:20.249Z,33.25
2023-05-05T07:45:20.169Z,35.65
2023-05-05T07:46:20.230Z,35.40
2023-05-05T07:47:20.164Z,31.29
2023-05-05T07:48:20.349Z,33.51
2023-05-05T07:49:20.099Z,29.94
2023-05-05T07:50:20.059Z,30.06
2023-05-05T07:51:20.074Z,28.13
2023-05-05T07:52:25.223Z,21.40
2023-05-05T07:53:21.126Z,21.43
2023-05-05T07:54:20.005Z,22.06
2023-05-05T07:55:20.090Z,22.63
2023-05-05T07:56:21.819Z,24.09
2023-05-05T07:57:19.989Z,25.45
2023-05-05T07:58:20.005Z,24.71
2023-05-05T07:59:20.038Z,25.64
2023-05-05T08:00:20.220Z,26.03
2023-05-05T08:01:19.951Z,25.65
2023-05-05T08:02:19.996Z,24.41
2023-05-05T08:03:20.163Z,22.87
2023-05-05T08:04:20.003Z,21.47
2023-05-05T08:05:19.997Z,21.84
2023-05-05T08:06:19.961Z,22.07
2023-05-05T08:07:19.919Z,21.10
2023-05-05T08:08:20.004Z,17.24
2023-05-05T08:09:19.917Z,19.42
2023-05-05T08:10:19.918Z,18.06
2023-05-05T08:11:20.003Z,13.30
2023-05-05T08:12:20.715Z,16.10
2023-05-05T08:13:20.049Z,13.02
2023-05-05T08:14:20.011Z,10.81
2023-05-05T08:15:20.197Z,7.38
2023-05-05T08:16:20.119Z,5.84
2023-05-05T08:17:20.149Z,6.63
2023-05-05T08:18:20.103Z,4.84
2023-05-05T08:19:28.636Z,4.86
2023-05-05T08:20:21.252Z,4.10
2023-05-05T08:21:20.124Z,4.94
2023-05-05T08:22:20.211Z,5.35
2023-05-05T08:23:20.160Z,6.22
2023-05-05T08:24:20.180Z,8.14
2023-05-05T08:25:20.145Z,9.98
2023-05-05T08:26:20.152Z,11.90
2023-05-05T08:27:20.160Z,12.99
2023-05-05T08:28:20.711Z,14.29
2023-05-05T08:29:20.328Z,11.87
2023-05-05T08:30:20.061Z,11.11
2023-05-05T08:31:20.275Z,11.00
2023-05-05T08:32:20.180Z,9.14
2023-05-05T08:33:20.208Z,6.88
2023-05-05T08:34:20.395Z,7.09
2023-05-05T08:35:20.434Z,6.11
2023-05-05T08:36:20.324Z,5.40
2023-05-05T08:37:20.825Z,4.55
2023-05-05T08:38:20.401Z,4.36
2023-05-05T08:39:20.530Z,4.58
2023-05-05T08:40:20.542Z,4.22
2023-05-05T08:41:20.587Z,5.17
2023-05-05T08:42:33.248Z,5.80
2023-05-05T08:43:21.751Z,5.33
2023-05-05T08:44:20.634Z,5.79
2023-05-05T08:45:20.635Z,5.89
2023-05-05T08:46:20.755Z,5.45
2023-05-05T08:47:20.678Z,4.60
2023-05-05T08:48:20.605Z,3.50
2023-05-05T08:49:20.701Z,3.57
2023-05-05T08:50:20.597Z,3.68
2023-05-05T08:51:20.625Z,3.86
2023-05-05T08:52:20.664Z,3.28
2023-05-05T08:53:20.654Z,2.76
2023-05-05T08:54:20.736Z,1.92
2023-05-05T08:55:20.741Z,2.04
2023-05-05T08:56:20.761Z,2.74
2023-05-05T08:57:20.837Z,2.87
2023-05-05T08:58:20.853Z,3.05
2023-05-05T08:59:20.936Z,2.73
2023-05-05T09:00:20.951Z,2.74
2023-05-05T09:01:21.053Z,2.34
2023-05-05T09:02:21.073Z,1.68
2023-05-05T09:03:21.190Z,1.12
2023-05-05T09:04:21.235Z,1.53
2023-05-05T09:05:21.178Z,1.47
2023-05-05T09:06:21.208Z,1.11
2023-05-05T09:07:21.285Z,0.99
2023-05-05T09:08:21.423Z,1.09
2023-05-05T09:09:21.419Z,1.31
2023-05-05T09:10:21.550Z,1.34
2023-05-05T09:11:21.505Z,1.70
2023-05-05T09:12:21.992Z,1.63
2023-05-05T09:13:21.700Z,1.56
2023-05-05T09:14:21.676Z,1.41
2023-05-05T09:15:21.716Z,1.14
2023-05-05T09:16:21.775Z,0.98
2023-05-05T09:17:21.875Z,1.15
2023-05-05T09:18:22.337Z,1.21
2023-05-05T09:19:21.890Z,1.05
2023-05-05T09:20:22.226Z,0.84
2023-05-05T09:21:21.902Z,0.87
2023-05-05T09:22:21.859Z,0.91
2023-05-05T09:23:21.896Z,0.83
2023-05-05T09:24:21.918Z,0.68
2023-05-05T09:25:21.928Z,0.71
2023-05-05T09:26:21.897Z,0.66
2023-05-05T09:27:22.248Z,0.91
2023-05-05T09:28:22.264Z,0.82
2023-05-05T09:29:21.982Z,0.92
2023-05-05T09:30:21.995Z,0.83
2023-05-05T09:31:22.066Z,1.03
2023-05-05T09:32:22.136Z,1.14
2023-05-05T09:33:22.087Z,1.24
2023-05-05T09:34:22.033Z,1.58
2023-05-05T09:35:22.135Z,1.28
2023-05-05T09:36:22.243Z,1.05
2023-05-05T09:37:22.775Z,1.12
2023-05-05T09:38:22.214Z,1.07
2023-05-05T09:39:22.108Z,0.84
2023-05-05T09:40:22.292Z,0.76
2023-05-05T09:41:22.068Z,0.74
2023-05-05T09:42:22.092Z,0.77
2023-05-05T09:43:22.129Z,0.74
2023-05-05T09:44:22.089Z,0.60
2023-05-05T09:45:22.164Z,0.47
2023-05-05T09:46:22.293Z,0.47
2023-05-05T09:47:29.603Z,0.47
2023-05-05T09:48:23.272Z,0.42
2023-05-05T09:49:22.253Z,0.43
2023-05-05T09:50:22.238Z,0.41
2023-05-05T09:51:22.275Z,0.44
2023-05-05T09:52:22.233Z,0.55
2023-05-05T09:53:22.259Z,0.57
2023-05-05T09:54:22.277Z,0.60
2023-05-05T09:55:22.179Z,0.51
2023-05-05T09:56:22.176Z,0.58
2023-05-05T09:57:22.183Z,0.61
2023-05-05T09:58:22.283Z,0.52
2023-05-05T09:59:22.166Z,0.58
2023-05-05T10:00:22.238Z,0.60
2023-05-05T10:01:22.235Z,0.66
2023-05-05T10:02:22.211Z,0.87
2023-05-05T10:03:22.243Z,0.69
2023-05-05T10:04:22.324Z,0.74
2023-05-05T10:05:22.368Z,1.08
2023-05-05T10:06:22.348Z,1.56
2023-05-05T10:07:22.431Z,1.85
2023-05-05T10:08:22.416Z,2.15
2023-05-05T10:09:22.477Z,2.17
2023-05-05T10:10:22.543Z,1.96
2023-05-05T10:11:22.581Z,1.38
2023-05-05T10:12:22.654Z,2.52
2023-05-05T10:13:22.727Z,3.55
2023-05-05T10:14:22.789Z,2.47
2023-05-05T10:15:22.888Z,2.71
2023-05-05T10:16:23.341Z,5.36
2023-05-05T10:17:22.950Z,7.88
2023-05-05T10:18:23.241Z,8.98
2023-05-05T10:19:24.303Z,8.64
2023-05-05T10:20:23.150Z,8.40
2023-05-05T10:21:23.226Z,7.20
2023-05-05T10:22:23.269Z,5.57
2023-05-05T10:23:23.354Z,4.58
2023-05-05T10:24:23.389Z,4.14
2023-05-05T10:25:23.418Z,4.42
2023-05-05T10:26:23.535Z,4.17
2023-05-05T10:27:23.557Z,3.70
2023-05-05T10:28:23.612Z,2.14
2023-05-05T10:29:24.517Z,1.88
2023-05-05T10:30:23.702Z,1.83
2023-05-05T10:31:26.405Z,1.51
2023-05-05T10:32:51.095Z,1.53
2023-05-05T10:33:31.100Z,1.43
2023-05-05T10:34:24.954Z,1.54
2023-05-05T10:35:23.885Z,1.56
2023-05-05T10:36:23.987Z,1.68
2023-05-05T10:37:23.870Z,2.00
2023-05-05T10:38:24.796Z,2.79
2023-05-05T10:39:23.742Z,4.04
2023-05-05T10:40:23.708Z,3.91
2023-05-05T10:41:23.739Z,4.12
2023-05-05T10:42:23.725Z,5.15
2023-05-05T10:43:23.711Z,5.12
2023-05-05T10:44:23.688Z,5.32
2023-05-05T10:45:23.688Z,5.77
2023-05-05T10:46:23.688Z,6.24
2023-05-05T10:47:23.710Z,6.91
2023-05-05T10:48:23.682Z,7.22
2023-05-05T10:49:23.661Z,8.26
2023-05-05T10:50:23.617Z,9.02
2023-05-05T10:51:35.189Z,9.47
2023-05-05T10:52:24.720Z,9.49
2023-05-05T10:53:23.677Z,9.59
2023-05-05T10:54:23.794Z,9.67
2023-05-05T10:55:23.763Z,10.06
2023-05-05T10:56:23.559Z,11.27
2023-05-05T10:57:23.595Z,11.86
2023-05-05T10:58:23.604Z,12.44
2023-05-05T10:59:23.551Z,12.94
2023-05-05T11:00:23.553Z,12.91
2023-05-05T11:01:23.622Z,11.79
2023-05-05T11:02:23.889Z,11.32
2023-05-05T11:03:23.587Z,11.98
2023-05-05T11:04:23.513Z,11.92
2023-05-05T11:05:23.543Z,11.07
2023-05-05T11:06:23.548Z,10.88
2023-05-05T11:07:23.533Z,10.93
2023-05-05T11:08:23.555Z,11.51
2023-05-05T11:09:23.582Z,7.69
2023-05-05T11:10:23.585Z,3.83
2023-05-05T11:11:23.685Z,2.59
2023-05-05T11:12:23.622Z,1.95
2023-05-05T11:13:23.759Z,1.37
2023-05-05T11:14:23.838Z,0.81
2023-05-05T11:15:23.792Z,0.63
2023-05-05T11:16:23.791Z,0.58
2023-05-05T11:17:23.725Z,0.80
2023-05-05T11:18:23.832Z,1.10
2023-05-05T11:19:24.345Z,1.95
2023-05-05T11:20:23.834Z,2.79
2023-05-05T11:21:24.293Z,3.93
2023-05-05T11:22:23.976Z,5.26
2023-05-05T11:23:24.015Z,6.60
2023-05-05T11:24:24.129Z,7.14
2023-05-05T11:25:24.084Z,7.89
2023-05-05T11:26:24.061Z,8.71
2023-05-05T11:27:24.151Z,8.67
2023-05-05T11:28:24.107Z,8.13
2023-05-05T11:29:24.157Z,8.41
2023-05-05T11:30:24.273Z,8.08
2023-05-05T11:31:24.375Z,7.82
2023-05-05T11:32:24.361Z,7.86
2023-05-05T11:33:24.283Z,7.87
2023-05-05T11:34:24.789Z,7.60
2023-05-05T11:35:24.371Z,7.96
2023-05-05T11:36:24.408Z,7.86
2023-05-05T11:37:24.483Z,7.33
2023-05-05T11:38:24.466Z,6.88
2023-05-05T11:39:24.528Z,6.88
2023-05-05T11:40:24.602Z,6.48
2023-05-05T11:41:24.602Z,6.31
2023-05-05T11:42:24.708Z,6.22
2023-05-05T11:43:24.752Z,5.87
2023-05-05T11:44:24.755Z,5.73
2023-05-05T11:45:24.791Z,5.67
2023-05-05T11:46:24.881Z,5.85
2023-05-05T11:47:24.883Z,5.88
2023-05-05T11:48:24.927Z,5.71
2023-05-05T11:49:24.980Z,5.31
2023-05-05T11:50:25.011Z,5.40
2023-05-05T11:51:25.047Z,5.26
2023-05-05T11:52:25.117Z,4.83
2023-05-05T11:53:25.194Z,4.50
2023-05-05T11:54:25.242Z,4.70
2023-05-05T11:55:25.287Z,4.45
2023-05-05T11:56:25.318Z,4.30
2023-05-05T11:57:25.389Z,4.08
2023-05-05T11:58:25.417Z,4.03
2023-05-05T11:59:25.468Z,4.11
2023-05-05T12:00:25.518Z,5.36
2023-05-05T12:01:25.612Z,8.26
2023-05-05T12:02:25.708Z,10.48
2023-05-05T12:03:25.825Z,13.62
2023-05-05T12:04:25.795Z,16.02
2023-05-05T12:05:25.801Z,18.59
2023-05-05T12:06:25.844Z,22.01
2023-05-05T12:07:25.935Z,24.04
2023-05-05T12:08:25.947Z,27.27
2023-05-05T12:09:26.012Z,28.84
2023-05-05T12:10:26.077Z,30.84
2023-05-05T12:11:26.136Z,31.74
2023-05-05T12:12:26.184Z,33.05
2023-05-05T12:13:26.253Z,34.96
2023-05-05T12:14:26.307Z,37.21
2023-05-05T12:15:26.399Z,39.21
2023-05-05T12:16:26.455Z,40.50
2023-05-05T12:17:26.459Z,43.42
2023-05-05T12:18:26.534Z,44.45
2023-05-05T12:19:26.594Z,47.62
2023-05-05T12:20:26.654Z,50.90
2023-05-05T12:21:26.734Z,54.09
2023-05-05T12:22:26.766Z,57.27
2023-05-05T12:23:26.826Z,59.00
2023-05-05T12:24:26.885Z,62.98
2023-05-05T12:25:26.949Z,65.25
2023-05-05T12:26:26.986Z,67.41
2023-05-05T12:27:27.153Z,71.84
2023-05-05T12:28:27.160Z,74.70
2023-05-05T12:29:27.176Z,80.03
2023-05-05T12:30:27.246Z,81.85
2023-05-05T12:31:27.353Z,85.39
2023-05-05T12:32:27.433Z,90.02
2023-05-05T12:33:27.427Z,91.39
2023-05-05T12:34:27.455Z,92.10
2023-05-05T12:35:27.536Z,94.36
2023-05-05T12:36:29.255Z,94.52
2023-05-05T12:37:27.609Z,97.23
2023-05-05T12:38:27.609Z,101.93
2023-05-05T12:39:27.597Z,104.07
2023-05-05T12:40:27.585Z,107.04
2023-05-05T12:41:27.613Z,107.71
2023-05-05T12:42:27.596Z,108.76
2023-05-05T12:43:27.563Z,109.36
2023-05-05T12:44:27.602Z,112.53
2023-05-05T12:45:27.573Z,113.72